Time;durP1;ratioP1;P1;durP2;ratioP2;P2;SDS_P1;SDS_P2;PMS_P1;PMS_P2;Temp;Humidity;BMP_temperature;BMP_pressure;BME280_temperature;BME280_humidity;BME280_pressure;Samples;Min_cycle;Max_cycle;Signal;HPM_P1;HPM_P2
2023/09/25 00:07:42;;;;;;;;;;;10.50;99.90;;;;;;20927608;28;20023;-75
2023/09/25 00:17:43;;;;;;;;;;;10.20;99.90;;;;;;20928684;28;20417;-75
2023/09/25 00:27:43;;;;;;;;;;;10.10;99.90;;;;;;20927737;28;19995;-75
2023/09/25 00:37:44;;;;;;;;;;;10.30;99.90;;;;;;20926189;28;19913;-75
2023/09/25 00:47:45;;;;;;;;;;;10.30;99.90;;;;;;20934121;28;19920;-75
2023/09/25 00:57:47;;;;;;;;;;;10.20;99.90;;;;;;20934630;28;19912;-75
2023/09/25 01:07:48;;;;;;;;;;;10.00;99.90;;;;;;20924092;28;19924;-75
2023/09/25 01:17:49;;;;;;;;;;;9.80;99.90;;;;;;20925500;28;19912;-75
2023/09/25 01:27:49;;;;;;;;;;;9.60;99.90;;;;;;20934051;28;19917;-75
2023/09/25 01:37:54;;;;;;;;;;;9.80;99.90;;;;;;20926155;28;19912;-75
2023/09/25 01:47:55;;;;;;;;;;;9.80;99.90;;;;;;20926323;28;19964;-75
2023/09/25 01:57:56;;;;;;;;;;;9.50;99.90;;;;;;20926421;28;19920;-75
2023/09/25 02:07:56;;;;;;;;;;;9.50;99.90;;;;;;20921145;28;19916;-75
2023/09/25 02:17:58;;;;;;;;;;;9.40;99.90;;;;;;20921848;28;20383;-74
2023/09/25 02:27:59;;;;;;;;;;;9.40;99.90;;;;;;20923612;28;19940;-75
2023/09/25 02:38:00;;;;;;;;;;;9.50;99.90;;;;;;20934194;28;19913;-75
2023/09/25 02:48:02;;;;;;;;;;;9.30;99.90;;;;;;20924869;28;20442;-75
2023/09/25 02:58:02;;;;;;;;;;;9.40;99.90;;;;;;20931555;28;19982;-75
2023/09/25 03:08:04;;;;;;;;;;;9.00;99.90;;;;;;20920070;28;19985;-74
2023/09/25 03:18:05;;;;;;;;;;;9.10;99.90;;;;;;20921378;28;19935;-75
2023/09/25 03:28:06;;;;;;;;;;;9.20;99.90;;;;;;20933257;28;20019;-75
2023/09/25 03:38:08;;;;;;;;;;;9.20;99.90;;;;;;20909554;28;19916;-75
2023/09/25 03:48:09;;;;;;;;;;;9.10;99.90;;;;;;20919381;28;19924;-74
2023/09/25 03:58:10;;;;;;;;;;;9.00;99.90;;;;;;20934002;28;19913;-75
2023/09/25 04:08:10;;;;;;;;;;;8.80;99.90;;;;;;20940782;28;19987;-75
2023/09/25 04:18:12;;;;;;;;;;;8.70;99.90;;;;;;20948630;28;19992;-74
2023/09/25 04:28:14;;;;;;;;;;;8.60;99.90;;;;;;20951432;28;20327;-75
2023/09/25 04:38:15;;;;;;;;;;;8.60;99.90;;;;;;20938769;28;19975;-75
2023/09/25 04:48:16;;;;;;;;;;;8.40;99.90;;;;;;20947651;28;19917;-75
2023/09/25 04:58:16;;;;;;;;;;;8.40;99.90;;;;;;20936233;28;20272;-74
2023/09/25 05:08:18;;;;;;;;;;;8.40;99.90;;;;;;20932819;28;20008;-74
2023/09/25 05:18:18;;;;;;;;;;;8.10;99.90;;;;;;20929923;28;19921;-74
2023/09/25 05:28:19;;;;;;;;;;;7.80;99.90;;;;;;20915105;28;19944;-75
2023/09/25 05:38:20;;;;;;;;;;;7.70;99.90;;;;;;20931283;28;19944;-74
2023/09/25 05:48:20;;;;;;;;;;;7.30;99.90;;;;;;20929528;28;19924;-76
2023/09/25 05:58:21;;;;;;;;;;;7.20;99.90;;;;;;20940669;28;20007;-75
2023/09/25 06:08:22;;;;;;;;;;;7.80;99.90;;;;;;20935057;28;19916;-76
2023/09/25 06:18:22;;;;;;;;;;;8.70;99.90;;;;;;20929479;28;20370;-76
2023/09/25 06:28:24;;;;;;;;;;;9.50;99.90;;;;;;20944487;28;19927;-76
2023/09/25 06:38:25;;;;;;;;;;;10.40;99.90;;;;;;20929244;28;19912;-76
2023/09/25 06:48:26;;;;;;;;;;;11.30;99.90;;;;;;20931451;28;20211;-76
2023/09/25 06:58:26;;;;;;;;;;;12.00;99.90;;;;;;20938048;28;19912;-76
2023/09/25 07:08:27;;;;;;;;;;;12.80;99.90;;;;;;20928782;28;19973;-75
2023/09/25 07:18:29;;;;;;;;;;;13.20;99.90;;;;;;20929189;28;20302;-76
2023/09/25 07:28:29;;;;;;;;;;;13.10;99.90;;;;;;20930808;28;19916;-75
2023/09/25 07:38:30;;;;;;;;;;;14.20;99.90;;;;;;20949306;28;19966;-75
2023/09/25 07:48:31;;;;;;;;;;;14.50;99.90;;;;;;20932670;28;19924;-75
2023/09/25 07:58:32;;;;;;;;;;;15.00;99.90;;;;;;20951533;28;19936;-75
2023/09/25 08:08:34;;;;;;;;;;;16.00;99.90;;;;;;20957732;28;19917;-75
2023/09/25 08:18:34;;;;;;;;;;;15.00;99.90;;;;;;20947213;28;19912;-75
2023/09/25 08:28:36;;;;;;;;;;;15.90;99.90;;;;;;20952381;28;20445;-74
2023/09/25 08:38:36;;;;;;;;;;;16.60;99.90;;;;;;20941504;28;20383;-75
2023/09/25 08:48:37;;;;;;;;;;;16.80;99.90;;;;;;20941200;28;19916;-75
2023/09/25 08:58:41;;;;;;;;;;;17.50;99.90;;;;;;20956494;28;19913;-74
2023/09/25 09:08:46;;;;;;;;;;;18.40;99.90;;;;;;20946907;28;19986;-75
2023/09/25 09:18:46;;;;;;;;;;;19.10;99.90;;;;;;20940668;28;19916;-75
2023/09/25 09:28:47;;;;;;;;;;;19.60;99.90;;;;;;20940455;28;19970;-75
2023/09/25 09:38:48;;;;;;;;;;;20.80;99.90;;;;;;20945583;28;19913;-75
2023/09/25 09:48:49;;;;;;;;;;;21.30;99.90;;;;;;20952559;28;19917;-75
2023/09/25 09:58:50;;;;;;;;;;;22.00;99.90;;;;;;20966054;28;19913;-75
2023/09/25 10:09:07;;;;;;;;;;;22.40;99.90;;;;;;20937243;28;20004;-75
2023/09/25 10:19:20;;;;;;;;;;;22.70;99.90;;;;;;20945226;28;19912;-75
2023/09/25 10:29:22;;;;;;;;;;;22.20;99.90;;;;;;20936087;28;20522;-76
2023/09/25 10:39:25;;;;;;;;;;;22.10;99.90;;;;;;20942857;28;20409;-75
2023/09/25 10:49:26;;;;;;;;;;;23.30;99.90;;;;;;20938313;28;19923;-76
2023/09/25 10:59:27;;;;;;;;;;;22.90;99.90;;;;;;20936426;28;19920;-78
2023/09/25 11:09:29;;;;;;;;;;;24.30;99.90;;;;;;20943665;28;19923;-77
2023/09/25 11:19:30;;;;;;;;;;;24.10;99.90;;;;;;20954439;28;19919;-77
2023/09/25 11:29:30;;;;;;;;;;;24.00;99.90;;;;;;20951133;28;19948;-77
2023/09/25 11:39:32;;;;;;;;;;;23.70;99.90;;;;;;20951455;28;20376;-76
2023/09/25 11:49:32;;;;;;;;;;;24.10;99.90;;;;;;20953061;28;19924;-76
2023/09/25 11:59:33;;;;;;;;;;;24.90;99.90;;;;;;20949804;28;19923;-76
2023/09/25 12:09:33;;;;;;;;;;;24.70;99.90;;;;;;20949347;28;19928;-76
2023/09/25 12:19:34;;;;;;;;;;;25.20;97.30;;;;;;20949074;28;20272;-76
2023/09/25 12:29:35;;;;;;;;;;;23.90;99.90;;;;;;20947150;28;19984;-76
2023/09/25 12:39:36;;;;;;;;;;;24.40;99.70;;;;;;20947658;28;19912;-76
2023/09/25 12:49:36;;;;;;;;;;;23.90;98.90;;;;;;20949534;28;19917;-76
2023/09/25 12:59:37;;;;;;;;;;;24.60;98.10;;;;;;20945138;28;19952;-75
2023/09/25 13:09:37;;;;;;;;;;;25.80;98.20;;;;;;20944693;28;19916;-75
2023/09/25 13:19:41;;;;;;;;;;;25.10;96.70;;;;;;20949262;28;19912;-74
2023/09/25 13:29:43;;;;;;;;;;;25.80;99.40;;;;;;20944129;28;20306;-75
2023/09/25 13:39:44;;;;;;;;;;;24.80;98.90;;;;;;20944774;28;19917;-75
2023/09/25 13:49:46;;;;;;;;;;;26.00;97.70;;;;;;20953839;28;19991;-75
2023/09/25 13:59:46;;;;;;;;;;;25.70;97.80;;;;;;20944962;28;20275;-75
2023/09/25 14:09:49;;;;;;;;;;;24.30;99.40;;;;;;20949282;28;20214;-75
2023/09/25 14:19:50;;;;;;;;;;;25.10;99.00;;;;;;20944188;28;19956;-75
2023/09/25 14:29:51;;;;;;;;;;;25.10;99.10;;;;;;20949060;28;19916;-75
2023/09/25 14:39:52;;;;;;;;;;;25.00;99.50;;;;;;20959956;28;19958;-75
2023/09/25 14:49:53;;;;;;;;;;;25.60;98.50;;;;;;20952386;28;19917;-75
2023/09/25 14:59:54;;;;;;;;;;;25.20;98.50;;;;;;20942510;28;20199;-75
2023/09/25 15:09:55;;;;;;;;;;;25.60;97.80;;;;;;20942379;28;19920;-75
2023/09/25 15:19:57;;;;;;;;;;;25.30;97.30;;;;;;20960482;28;19963;-75
2023/09/25 15:29:57;;;;;;;;;;;24.90;97.10;;;;;;20947541;28;20343;-75
2023/09/25 15:39:58;;;;;;;;;;;24.50;97.00;;;;;;20959588;28;19921;-76
2023/09/25 15:49:59;;;;;;;;;;;23.70;97.70;;;;;;20943329;28;19923;-77
2023/09/25 16:00:00;;;;;;;;;;;23.20;98.20;;;;;;20983713;28;19913;-76
2023/09/25 16:10:00;;;;;;;;;;;23.00;99.90;;;;;;20963058;28;20306;-76
2023/09/25 16:20:02;;;;;;;;;;;22.20;99.90;;;;;;20963397;28;19927;-76
2023/09/25 16:30:04;;;;;;;;;;;21.50;99.90;;;;;;20961453;28;19916;-76
2023/09/25 16:40:05;;;;;;;;;;;20.80;99.90;;;;;;20955965;28;19924;-76
2023/09/25 16:50:06;;;;;;;;;;;20.70;99.90;;;;;;20961051;28;19916;-77
2023/09/25 17:00:07;;;;;;;;;;;20.50;99.90;;;;;;20957542;28;19950;-77
2023/09/25 17:10:08;;;;;;;;;;;20.40;99.90;;;;;;20954919;28;19967;-76
2023/09/25 17:20:09;;;;;;;;;;;19.80;99.90;;;;;;20975468;28;19913;-77
2023/09/25 17:30:11;;;;;;;;;;;18.20;99.90;;;;;;20970560;28;20291;-75
2023/09/25 17:40:11;;;;;;;;;;;16.70;99.90;;;;;;20970962;28;19963;-75
2023/09/25 17:50:12;;;;;;;;;;;16.50;99.90;;;;;;20972623;28;19916;-75
2023/09/25 18:00:13;;;;;;;;;;;15.30;99.90;;;;;;20969864;28;19958;-74
2023/09/25 18:10:13;;;;;;;;;;;15.00;99.90;;;;;;20956793;28;19999;-74
2023/09/25 18:20:14;;;;;;;;;;;14.60;99.90;;;;;;20959684;28;20074;-74
2023/09/25 18:30:15;;;;;;;;;;;14.30;99.90;;;;;;20966446;28;19973;-74
2023/09/25 18:40:15;;;;;;;;;;;13.80;99.90;;;;;;20949165;28;20353;-74
2023/09/25 18:50:16;;;;;;;;;;;14.10;99.90;;;;;;20947050;28;19917;-75
2023/09/25 19:00:17;;;;;;;;;;;14.10;99.90;;;;;;20959605;28;20299;-75
2023/09/25 19:10:17;;;;;;;;;;;14.00;99.90;;;;;;20966074;28;19923;-75
2023/09/25 19:20:18;;;;;;;;;;;13.80;99.90;;;;;;20961350;28;19912;-75
2023/09/25 19:30:19;;;;;;;;;;;13.50;99.90;;;;;;20976672;28;19924;-74
2023/09/25 19:40:19;;;;;;;;;;;13.10;99.90;;;;;;20964555;28;20042;-75
2023/09/25 19:50:20;;;;;;;;;;;13.10;99.90;;;;;;20976533;28;19955;-74
2023/09/25 20:00:21;;;;;;;;;;;13.10;99.90;;;;;;20969338;28;19949;-74
2023/09/25 20:10:21;;;;;;;;;;;12.80;99.90;;;;;;20976185;28;20504;-74
2023/09/25 20:20:22;;;;;;;;;;;12.80;99.90;;;;;;20996539;28;19927;-77
2023/09/25 20:30:23;;;;;;;;;;;12.70;99.90;;;;;;20985625;28;19947;-76
2023/09/25 20:40:23;;;;;;;;;;;12.10;99.90;;;;;;20982553;28;19955;-76
2023/09/25 20:50:28;;;;;;;;;;;11.80;99.90;;;;;;20975391;28;20362;-77
2023/09/25 21:00:29;;;;;;;;;;;12.10;99.90;;;;;;20972172;28;20299;-76
2023/09/25 21:10:30;;;;;;;;;;;12.20;99.90;;;;;;20973134;28;19913;-76
2023/09/25 21:20:31;;;;;;;;;;;12.20;99.90;;;;;;20982442;28;20279;-76
2023/09/25 21:30:32;;;;;;;;;;;11.70;99.90;;;;;;20969910;28;19923;-76
2023/09/25 21:40:32;;;;;;;;;;;11.30;99.90;;;;;;20969478;28;19913;-76
2023/09/25 21:50:34;;;;;;;;;;;11.30;99.90;;;;;;20958830;28;19912;-76
2023/09/25 22:00:34;;;;;;;;;;;10.60;99.90;;;;;;20968058;28;19913;-76
2023/09/25 22:10:35;;;;;;;;;;;11.20;99.90;;;;;;20958232;28;19916;-76
2023/09/25 22:20:39;;;;;;;;;;;11.40;99.90;;;;;;20959813;28;19912;-76
2023/09/25 22:30:40;;;;;;;;;;;11.40;99.90;;;;;;20961266;28;19925;-76
2023/09/25 22:40:41;;;;;;;;;;;11.30;99.90;;;;;;20955851;28;19951;-77
2023/09/25 22:50:42;;;;;;;;;;;11.10;99.90;;;;;;20972213;28;19912;-76
2023/09/25 23:00:42;;;;;;;;;;;11.20;99.90;;;;;;20966334;28;20003;-76
2023/09/25 23:10:43;;;;;;;;;;;11.10;99.90;;;;;;20970282;28;19993;-76
2023/09/25 23:20:44;;;;;;;;;;;11.30;99.90;;;;;;20997171;28;19913;-76
2023/09/25 23:30:45;;;;;;;;;;;11.00;99.90;;;;;;20989853;28;20347;-76
2023/09/25 23:40:48;;;;;;;;;;;10.60;99.90;;;;;;20987575;28;19951;-76
2023/09/25 23:50:48;;;;;;;;;;;10.40;99.90;;;;;;20974634;28;19999;-76
